Flight Track Log - Related Links

Times and Time Zones

All times are in EST time to prevent confusion due to time zone crossing. See the FSR411 flight status page for this flight to view local times or setup timezone preferences in your user account.

Time Position Orientation Groundspeed Altitude Reporting Facility
EST Latitude Longitude Course Direction KTS MPH feet Rate Location/Type
Fri 02:41:41 PM 40.5967 -75.5869 257° West 218 251 6,600  Level New York Center
Fri 02:42:41 PM 40.5825 -75.6789 259° West 239 275 8,800 2,650 Climbing New York Center
Fri 02:43:41 PM 40.5475 -75.7692 243° Southwest 258 297 11,900 3,500 Climbing New York Center
Fri 02:44:41 PM 40.5017 -75.8642 238° Southwest 291 335 15,800 4,050 Climbing New York Center
Fri 02:45:41 PM 40.4556 -75.9669 240° Southwest 315 362 20,000 4,000 Climbing New York Center
Fri 02:46:41 PM 40.4092 -76.0700 239° Southwest 322 371 23,800 3,500 Climbing New York Center
Fri 02:47:41 PM 40.3794 -76.1794 250° West 322 371 27,000 3,000 Climbing New York Center
Fri 02:48:41 PM 40.3803 -76.2939 271° West 313 360 29,800 2,571 Climbing New York Center
Fri 02:49:40 PM 40.3789 -76.4108 269° West 318 366 32,100 2,150 Climbing New York Center
Fri 02:50:41 PM 40.3772 -76.5308 269° West 332 382 34,100 1,736 Climbing New York Center
Fri 02:51:41 PM 40.3756 -76.6531 269° West 332 382 35,600 1,300 Climbing New York Center
Fri 02:52:41 PM 40.3711 -76.7783 267° West 337 388 36,700 1,050 Climbing New York Center
Fri 02:53:41 PM 40.3689 -76.9061 269° West 350 403 37,700 1,000 Climbing New York Center
Fri 02:54:41 PM 40.3683 -77.0369 270° West 355 409 38,700 914 Climbing New York Center
Fri 02:56:12 PM 40.3661 -77.2133 269° West 354 407 40,000 510 Climbing Cleveland Center
Fri 02:57:14 PM 40.3631 -77.3475 268° West 365 420 40,000  Level Cleveland Center
Fri 02:58:15 PM 40.3592 -77.5125 268° West 377 434 40,000  Level Cleveland Center
Fri 02:59:17 PM 40.3558 -77.6494 268° West 376 433 40,000  Level Cleveland Center
Fri 03:00:19 PM 40.3522 -77.7883 268° West 382 440 40,000  Level Cleveland Center
Fri 03:01:20 PM 40.3492 -77.9275 268° West 383 441 40,000  Level Cleveland Center
Fri 03:02:22 PM 40.3458 -78.0656 268° West 381 438 40,000  Level Cleveland Center
Fri 03:03:23 PM 40.3414 -78.2047 268° West 382 440 40,000  Level Cleveland Center
Fri 03:04:25 PM 40.3375 -78.3444 268° West 384 442 40,000  Level Cleveland Center
Fri 03:05:27 PM 40.3331 -78.4839 268° West 384 442 40,000  Level Cleveland Center
Fri 03:06:28 PM 40.3283 -78.6514 268° West 385 443 40,000  Level Cleveland Center
Fri 03:07:30 PM 40.3242 -78.7919 268° West 387 445 40,000  Level Cleveland Center
Fri 03:08:32 PM 40.3183 -78.9331 267° West 389 448 40,000  Level Cleveland Center
Fri 03:09:33 PM 40.3156 -79.0756 269° West 392 451 40,000  Level Cleveland Center
Fri 03:10:35 PM 40.3106 -79.2164 267° West 389 448 40,000  Level Cleveland Center
Fri 03:11:37 PM 40.3031 -79.3753 267° West 393 452 40,000  Level Cleveland Center
Fri 03:12:38 PM 40.2972 -79.5175 267° West 392 451 40,000  Level Cleveland Center
Fri 03:13:40 PM 40.2911 -79.6586 267° West 390 449 40,000  Level Cleveland Center
Fri 03:14:42 PM 40.2847 -79.7994 267° West 387 445 40,000  Level Cleveland Center
Fri 03:15:43 PM 40.2778 -79.9403 266° West 386 444 40,000  Level Cleveland Center
Fri 03:16:45 PM 40.2725 -80.0839 267° West 389 448 40,000  Level Cleveland Center
Fri 03:17:47 PM 40.2664 -80.2267 267° West 386 444 40,000  Level Cleveland Center
Fri 03:18:48 PM 40.2592 -80.3697 266° West 388 447 40,000  Level Cleveland Center
Fri 03:19:50 PM 40.2525 -80.5108 267° West 389 448 40,000  Level Cleveland Center
Fri 03:20:52 PM 40.2458 -80.6497 266° West 384 442 40,000  Level Cleveland Center
Fri 03:21:54 PM 40.2381 -80.8150 267° West 380 437 40,000  Level Cleveland Center
Fri 03:22:55 PM 40.2303 -80.9533 266° West 381 438 40,000  Level Cleveland Center
Fri 03:23:57 PM 40.2222 -81.0931 266° West 385 443 40,000  Level Cleveland Center
Fri 03:24:38 PM 40.2164 -81.1922 266° West 387 445 40,000  Level Indianapolis Center
Fri 03:25:40 PM 40.2086 -81.3342 266° West 389 448 40,000  Level Indianapolis Center
Fri 03:26:41 PM 40.2003 -81.4781 266° West 392 451 40,000  Level Indianapolis Center
Fri 03:27:43 PM 40.1914 -81.6219 265° West 393 452 40,000  Level Indianapolis Center
Fri 03:28:44 PM 40.1831 -81.7656 266° West 393 452 40,000  Level Indianapolis Center
Fri 03:29:46 PM 40.1750 -81.9008 266° West 395 455 40,000  Level Indianapolis Center
Fri 03:30:47 PM 40.1653 -82.0725 266° West 397 457 40,000  Level Indianapolis Center
Fri 03:31:49 PM 40.1561 -82.2131 265° West 390 449 40,000  Level Indianapolis Center
Fri 03:32:50 PM 40.1464 -82.3536 265° West 391 450 40,000  Level Indianapolis Center
Fri 03:33:52 PM 40.1372 -82.4936 265° West 388 447 40,000  Level Indianapolis Center
Fri 03:34:54 PM 40.1281 -82.6342 265° West 390 449 40,000  Level Indianapolis Center
Fri 03:35:55 PM 40.1183 -82.7761 265° West 392 451 40,000  Level Indianapolis Center
Fri 03:36:57 PM 40.1086 -82.9172 265° West 393 452 40,000  Level Indianapolis Center
Fri 03:37:58 PM 40.0961 -83.0864 265° West 392 451 40,000  Level Indianapolis Center
Fri 03:39:00 PM 40.0858 -83.2278 265° West 394 453 40,000  Level Indianapolis Center
Fri 03:40:01 PM 40.0769 -83.3669 265° West 391 450 40,000  Level Indianapolis Center
Fri 03:41:03 PM 40.0658 -83.5067 264° West 393 452 40,000  Level Indianapolis Center
Fri 03:42:04 PM 40.0550 -83.6467 264° West 395 455 40,000  Level Indianapolis Center
Fri 03:43:06 PM 40.0444 -83.7878 264° West 396 456 40,000  Level Indianapolis Center
Fri 03:44:07 PM 40.0311 -83.9586 264° West 398 458 40,000  Level Indianapolis Center
Fri 03:45:08 PM 40.0203 -84.1000 264° West 395 455 40,000 -293 Level Indianapolis Center
Fri 03:46:10 PM 40.0078 -84.2419 263° West 394 453 39,400 -1,024 Descending Indianapolis Center
Fri 03:47:11 PM 39.9978 -84.3836 265° West 394 453 37,900 -1,463 Descending Indianapolis Center
Fri 03:48:13 PM 39.9856 -84.5253 264° West 396 456 36,400 -927 Descending Indianapolis Center
Fri 03:49:14 PM 39.9708 -84.6694 262° West 400 460 36,000 -195 Descending Indianapolis Center
Fri 03:50:16 PM 39.9597 -84.8150 264° West 405 466 36,000  Level Indianapolis Center
Fri 03:51:17 PM 39.9461 -84.9631 263° West 406 467 36,000  Level Indianapolis Center
Fri 03:52:19 PM 39.9308 -85.1381 264° West 406 467 36,000  Level Indianapolis Center
Fri 03:53:20 PM 39.9186 -85.2833 264° West 405 466 36,000 -98 Level Indianapolis Center
Fri 03:54:22 PM 39.9050 -85.4269 263° West 403 464 35,800 -829 Descending Indianapolis Center
Fri 03:55:23 PM 39.8919 -85.5689 263° West 400 460 34,300 -1,512 Descending Indianapolis Center
Fri 03:56:25 PM 39.8783 -85.7150 263° West 404 465 32,700 -1,512 Descending Indianapolis Center
Fri 03:57:26 PM 39.8644 -85.8636 263° West 414 476 31,200 -1,512 Descending Indianapolis Center
Fri 03:58:28 PM 39.8500 -86.0106 263° West 414 476 29,600 -1,645 Descending Indianapolis Center
Fri 03:59:30 PM 39.8325 -86.1897 263° West 422 486 27,800 -1,694 Descending Indianapolis Center
Fri 04:00:32 PM 39.8183 -86.3350 263° West 424 488 26,100 -1,707 Descending Indianapolis Center
Fri 04:01:33 PM 39.8289 -86.4814 275° West 417 480 24,300 -1,756 Descending Indianapolis Center
Fri 04:02:35 PM 39.8475 -86.6239 280° West 407 468 22,500 -1,902 Descending Indianapolis Center
Fri 04:03:36 PM 39.8675 -86.7900 279° West 393 452 20,400 -1,854 Descending Indianapolis Center
Fri 04:04:38 PM 39.8836 -86.9267 279° West 386 444 18,700 -1,366 Descending Indianapolis Center
Fri 04:05:39 PM 39.8997 -87.0619 279° West 382 440 17,600 -1,317 Descending Indianapolis Center
Fri 04:06:41 PM 39.9153 -87.1939 279° West 374 430 16,000 -1,610 Descending Indianapolis Center
Fri 04:07:42 PM 39.9308 -87.3219 279° West 366 421 14,300 -1,659 Descending Indianapolis Center
Fri 04:08:44 PM 39.9447 -87.4450 278° West 352 405 12,600 -1,561 Descending Indianapolis Center
Fri 04:09:45 PM 39.9592 -87.5689 279° West 349 402 11,100 -829 Descending Indianapolis Center
Fri 04:10:47 PM 39.9725 -87.6861 278° West 336 387 10,900 -829 Descending Indianapolis Center
Fri 04:11:48 PM 39.9867 -87.8050 279° West 281 323 9,400 -1,740 Descending Indianapolis Center
Fri 04:12:58 PM 39.9978 -87.8994 279° West 266 306 7,100 -2,091 Descending Chicago Center
Fri 04:14:00 PM 40.0094 -88.0047 278° West 270 311 4,800 -2,226 Descending Chicago Center
Fri 04:15:00 PM 40.0167 -88.1336 270° West  Level FlightAware Approximate
Fri 04:22:00 PM 40.0333 -88.2667 288° West  Level FlightAware Approximate
Fri 04:23:00 PM 40.0388 -88.2778 288° West  Level Estimated
Fri 04:24:00 PM 40.0388 -88.2778 288° West  Level Estimated
Fri 04:25:00 PM 40.0388 -88.2778 288° West  Level Estimated
Fri 04:26:00 PM 40.0388 -88.2778 288° West  Level Estimated
Fri 04:27:00 PM 40.0388 -88.2778 288° West  Level Estimated

Login

Don't have an account? Register now (free) for customized features, flight alerts, and more!